Time;durP1;ratioP1;P1;durP2;ratioP2;P2;SDS_P1;SDS_P2;PMS_P1;PMS_P2;Temp;Humidity;BMP_temperature;BMP_pressure;BME280_temperature;BME280_humidity;BME280_pressure;Samples;Min_cycle;Max_cycle;Signal;HPM_P1;HPM_P2
2022/08/21 00:01:55;;;;;;;;;;;;;;;;;;4994428;28;19961;-65
2022/08/21 00:04:20;;;;;;;;;;;;;;;;;;4993563;28;19927;-65
2022/08/21 00:06:45;;;;;;;;;;;;;;;;;;4991535;28;20271;-65
2022/08/21 00:09:11;;;;;;;;;;;;;;;;;;4991166;28;19914;-65
2022/08/21 00:11:36;;;;;;;;;;;;;;;;;;4982773;28;20613;-65
2022/08/21 00:14:01;;;;;;;;;;;;;;;;;;4992539;28;19918;-65
2022/08/21 00:16:26;;;;;;;;;;;;;;;;;;4982208;28;20432;-66
2022/08/21 00:18:51;;;;;;;;;;;;;;;;;;4982169;28;19969;-65
2022/08/21 00:21:16;;;;;;;;;;;;;;;;;;4992558;28;19914;-64
2022/08/21 00:23:41;;;;;;;;;;;;;;;;;;4992997;28;19914;-64
2022/08/21 00:26:07;;;;;;;;;;;;;;;;;;4992703;28;19921;-65
2022/08/21 00:28:32;;;;;;;;;;;;;;;;;;4992287;28;19921;-65
2022/08/21 00:30:57;;;;;;;;;;;;;;;;;;4991209;28;19921;-66
2022/08/21 00:33:22;;;;;;;;;;;;;;;;;;4984402;28;20117;-65
2022/08/21 00:35:47;;;;;;;;;;;;;;;;;;4992938;28;19914;-65
2022/08/21 00:38:12;;;;;;;;;;;;;;;;;;4991156;28;19918;-65
2022/08/21 00:40:38;;;;;;;;;;;;;;;;;;4989442;28;19996;-65
2022/08/21 00:43:03;;;;;;;;;;;;;;;;;;4989874;28;20013;-65
2022/08/21 00:45:29;;;;;;;;;;;;;;;;;;4991872;28;19921;-64
2022/08/21 00:47:55;;;;;;;;;;;;;;;;;;4992169;28;20370;-64
2022/08/21 00:50:20;;;;;;;;;;;;;;;;;;4992362;28;19918;-65
2022/08/21 00:52:45;;;;;;;;;;;;;;;;;;4974585;28;19921;-65
2022/08/21 00:55:10;;;;;;;;;;;;;;;;;;4997128;28;19963;-65
2022/08/21 00:57:35;;;;;;;;;;;;;;;;;;4984425;28;19921;-64
2022/08/21 01:00:00;;;;;;;;;;;;;;;;;;4987017;28;19918;-65
2022/08/21 01:02:26;;;;;;;;;;;;;;;;;;4982439;28;20080;-65
2022/08/21 01:04:51;;;;;;;;;;;;;;;;;;4979281;28;19921;-64
2022/08/21 01:07:16;;;;;;;;;;;;;;;;;;4967119;28;19972;-64
2022/08/21 01:09:41;;;;;;;;;;;;;;;;;;4990231;28;20000;-65
2022/08/21 01:12:07;;;;;;;;;;;;;;;;;;4986733;28;19954;-65
2022/08/21 01:14:32;;;;;;;;;;;;;;;;;;4988211;28;19914;-63
2022/08/21 01:16:57;;;;;;;;;;;;;;;;;;4991930;28;20391;-64
2022/08/21 01:19:22;;;;;;;;;;;;;;;;;;5006551;28;20388;-65
2022/08/21 01:21:47;;;;;;;;;;;;;;;;;;5005691;28;20388;-64
2022/08/21 01:24:12;;;;;;;;;;;;;;;;;;5005821;28;19928;-64
2022/08/21 01:26:38;;;;;;;;;;;;;;;;;;5010279;28;19936;-65
2022/08/21 01:29:03;;;;;;;;;;;;;;;;;;5011253;28;20769;-65
2022/08/21 01:31:28;;;;;;;;;;;;;;;;;;5003764;28;19920;-65
2022/08/21 01:33:53;;;;;;;;;;;;;;;;;;5011375;28;20271;-65
2022/08/21 01:36:18;;;;;;;;;;;;;;;;;;5006492;28;20461;-65
2022/08/21 01:38:43;;;;;;;;;;;;;;;;;;5004907;28;19917;-65
2022/08/21 01:41:08;;;;;;;;;;;;;;;;;;5006763;28;19913;-64
2022/08/21 01:43:34;;;;;;;;;;;;;;;;;;5000225;28;20352;-63
2022/08/21 01:45:59;;;;;;;;;;;;;;;;;;5009869;28;20000;-64
2022/08/21 01:48:24;;;;;;;;;;;;;;;;;;5003599;28;19928;-64
2022/08/21 01:50:49;;;;;;;;;;;;;;;;;;5010829;28;20033;-64
2022/08/21 01:53:15;;;;;;;;;;;;;;;;;;5003109;28;20463;-65
2022/08/21 01:55:40;;;;;;;;;;;;;;;;;;5004702;28;19913;-64
2022/08/21 01:58:05;;;;;;;;;;;;;;;;;;5009849;28;20052;-63
2022/08/21 02:00:30;;;;;;;;;;;;;;;;;;5006112;28;19913;-65
2022/08/21 02:02:55;;;;;;;;;;;;;;;;;;5010130;28;19968;-65
2022/08/21 02:05:20;;;;;;;;;;;;;;;;;;5011396;28;19929;-65
2022/08/21 02:07:46;;;;;;;;;;;;;;;;;;5005638;28;19932;-64
2022/08/21 02:10:11;;;;;;;;;;;;;;;;;;5004054;28;19913;-65
2022/08/21 02:12:36;;;;;;;;;;;;;;;;;;4997720;28;19913;-64
2022/08/21 02:15:02;;;;;;;;;;;;;;;;;;4996272;28;20357;-65
2022/08/21 02:17:27;;;;;;;;;;;;;;;;;;5002461;28;19921;-65
2022/08/21 02:19:52;;;;;;;;;;;;;;;;;;5010540;28;20805;-65
2022/08/21 02:22:17;;;;;;;;;;;;;;;;;;5010983;28;19961;-65
2022/08/21 02:24:42;;;;;;;;;;;;;;;;;;5005836;28;20377;-65
2022/08/21 02:27:08;;;;;;;;;;;;;;;;;;5002307;28;20047;-65
2022/08/21 02:29:33;;;;;;;;;;;;;;;;;;5001659;28;20401;-65
2022/08/21 02:31:58;;;;;;;;;;;;;;;;;;5010230;28;19914;-65
2022/08/21 02:34:23;;;;;;;;;;;;;;;;;;5008148;28;19918;-65
2022/08/21 02:36:49;;;;;;;;;;;;;;;;;;5005359;28;19922;-65
2022/08/21 02:39:14;;;;;;;;;;;;;;;;;;5009290;28;19971;-64
2022/08/21 02:41:39;;;;;;;;;;;;;;;;;;5003231;28;20004;-65
2022/08/21 02:44:04;;;;;;;;;;;;;;;;;;5007379;28;19914;-64
2022/08/21 02:46:30;;;;;;;;;;;;;;;;;;5005981;28;19914;-65
2022/08/21 02:48:55;;;;;;;;;;;;;;;;;;4998369;28;19920;-65
2022/08/21 02:51:22;;;;;;;;;;;;;;;;;;5009724;28;20357;-66
2022/08/21 02:53:47;;;;;;;;;;;;;;;;;;5008203;28;19928;-65
2022/08/21 02:56:12;;;;;;;;;;;;;;;;;;5009632;28;20469;-65
2022/08/21 02:58:38;;;;;;;;;;;;;;;;;;5009287;28;19919;-65
2022/08/21 03:01:03;;;;;;;;;;;;;;;;;;5002694;28;19918;-65
2022/08/21 03:03:29;;;;;;;;;;;;;;;;;;5005749;28;20020;-65
2022/08/21 03:05:54;;;;;;;;;;;;;;;;;;5003290;28;19921;-64
2022/08/21 03:08:19;;;;;;;;;;;;;;;;;;4981910;28;19925;-65
2022/08/21 03:10:44;;;;;;;;;;;;;;;;;;5007694;28;19914;-65
2022/08/21 03:13:09;;;;;;;;;;;;;;;;;;5007544;28;19940;-65
2022/08/21 03:15:34;;;;;;;;;;;;;;;;;;4992533;28;20352;-64
2022/08/21 03:18:00;;;;;;;;;;;;;;;;;;5004339;28;20290;-65
2022/08/21 03:20:25;;;;;;;;;;;;;;;;;;5009527;28;19913;-64
2022/08/21 03:22:50;;;;;;;;;;;;;;;;;;4999290;28;19924;-65
2022/08/21 03:25:15;;;;;;;;;;;;;;;;;;5002087;28;19952;-64
2022/08/21 03:27:40;;;;;;;;;;;;;;;;;;5000664;28;20373;-64
2022/08/21 03:30:05;;;;;;;;;;;;;;;;;;5011251;28;20397;-65
2022/08/21 03:32:31;;;;;;;;;;;;;;;;;;5012472;28;19952;-65
2022/08/21 03:34:56;;;;;;;;;;;;;;;;;;4992899;28;20358;-65
2022/08/21 03:37:21;;;;;;;;;;;;;;;;;;5007027;28;19913;-65
2022/08/21 03:39:46;;;;;;;;;;;;;;;;;;5010505;28;20576;-65
2022/08/21 03:42:12;;;;;;;;;;;;;;;;;;4994497;28;19913;-65
2022/08/21 03:44:37;;;;;;;;;;;;;;;;;;5007960;28;20360;-65
2022/08/21 03:47:02;;;;;;;;;;;;;;;;;;5013795;28;19917;-65
2022/08/21 03:49:27;;;;;;;;;;;;;;;;;;5012706;28;19921;-65
2022/08/21 03:51:52;;;;;;;;;;;;;;;;;;5012595;28;19913;-65
2022/08/21 03:54:17;;;;;;;;;;;;;;;;;;4986909;28;20013;-64
2022/08/21 03:56:42;;;;;;;;;;;;;;;;;;5006709;28;20289;-65
2022/08/21 03:59:08;;;;;;;;;;;;;;;;;;5007029;28;19913;-65
2022/08/21 04:01:33;;;;;;;;;;;;;;;;;;5014070;28;19914;-64
2022/08/21 04:03:58;;;;;;;;;;;;;;;;;;5008709;28;20270;-64
2022/08/21 04:06:23;;;;;;;;;;;;;;;;;;5008926;28;20380;-66
2022/08/21 04:08:48;;;;;;;;;;;;;;;;;;5001021;28;19918;-65
2022/08/21 04:11:14;;;;;;;;;;;;;;;;;;5012057;28;19917;-65
2022/08/21 04:13:40;;;;;;;;;;;;;;;;;;5011470;28;20003;-64
2022/08/21 04:16:05;;;;;;;;;;;;;;;;;;5010049;28;20044;-64
2022/08/21 04:18:30;;;;;;;;;;;;;;;;;;5004121;28;19921;-64
2022/08/21 04:20:55;;;;;;;;;;;;;;;;;;4990719;28;19921;-64
2022/08/21 04:23:21;;;;;;;;;;;;;;;;;;5007594;28;19956;-64
2022/08/21 04:25:46;;;;;;;;;;;;;;;;;;4997730;28;19959;-64
2022/08/21 04:28:11;;;;;;;;;;;;;;;;;;5003282;28;19918;-64
2022/08/21 04:30:36;;;;;;;;;;;;;;;;;;4997073;28;19914;-64
2022/08/21 04:33:02;;;;;;;;;;;;;;;;;;4992707;28;19914;-65
2022/08/21 04:35:27;;;;;;;;;;;;;;;;;;4992601;28;19928;-65
2022/08/21 04:37:53;;;;;;;;;;;;;;;;;;4996100;28;20421;-65
2022/08/21 04:40:18;;;;;;;;;;;;;;;;;;5002032;28;19945;-65
2022/08/21 04:42:44;;;;;;;;;;;;;;;;;;5000930;28;19913;-65
2022/08/21 04:45:09;;;;;;;;;;;;;;;;;;4994407;28;20056;-64
2022/08/21 04:47:34;;;;;;;;;;;;;;;;;;4991278;28;20204;-65
2022/08/21 04:49:59;;;;;;;;;;;;;;;;;;5005034;28;19914;-64
2022/08/21 04:52:24;;;;;;;;;;;;;;;;;;4990405;28;19926;-65
2022/08/21 04:54:51;;;;;;;;;;;;;;;;;;4996034;28;20370;-65
2022/08/21 04:57:16;;;;;;;;;;;;;;;;;;4995678;28;19917;-64
2022/08/21 04:59:41;;;;;;;;;;;;;;;;;;4995940;28;19922;-65
2022/08/21 05:02:06;;;;;;;;;;;;;;;;;;5000892;28;19967;-64
2022/08/21 05:04:32;;;;;;;;;;;;;;;;;;4994613;28;19962;-64
2022/08/21 05:06:57;;;;;;;;;;;;;;;;;;4999841;28;20409;-64
2022/08/21 05:09:22;;;;;;;;;;;;;;;;;;4990242;28;20423;-64
2022/08/21 05:11:48;;;;;;;;;;;;;;;;;;4997776;28;19939;-64
2022/08/21 05:14:13;;;;;;;;;;;;;;;;;;4996631;28;19914;-66
2022/08/21 05:16:38;;;;;;;;;;;;;;;;;;4992188;28;19921;-64
2022/08/21 05:19:04;;;;;;;;;;;;;;;;;;4990991;28;19922;-65
2022/08/21 05:21:29;;;;;;;;;;;;;;;;;;4967642;28;19926;-65
2022/08/21 05:23:54;;;;;;;;;;;;;;;;;;4985591;28;19921;-66
2022/08/21 05:26:19;;;;;;;;;;;;;;;;;;4991723;28;20013;-64
2022/08/21 05:28:44;;;;;;;;;;;;;;;;;;4989793;28;20267;-64
2022/08/21 05:31:09;;;;;;;;;;;;;;;;;;4992267;28;19920;-66
2022/08/21 05:33:35;;;;;;;;;;;;;;;;;;4983768;28;20362;-66
2022/08/21 05:36:00;;;;;;;;;;;;;;;;;;4984672;28;20364;-65
2022/08/21 05:38:27;;;;;;;;;;;;;;;;;;4981454;28;19949;-65
2022/08/21 05:40:52;;;;;;;;;;;;;;;;;;4985447;28;19918;-65
2022/08/21 05:43:17;;;;;;;;;;;;;;;;;;4986181;28;19977;-65
2022/08/21 05:45:42;;;;;;;;;;;;;;;;;;4985156;28;19914;-64
2022/08/21 05:48:07;;;;;;;;;;;;;;;;;;4991789;28;19918;-64
2022/08/21 05:50:32;;;;;;;;;;;;;;;;;;4990722;28;19917;-65
2022/08/21 05:52:57;;;;;;;;;;;;;;;;;;4991298;28;19961;-64
2022/08/21 05:55:23;;;;;;;;;;;;;;;;;;4987803;28;19910;-65
2022/08/21 05:57:48;;;;;;;;;;;;;;;;;;4984699;28;20285;-65
2022/08/21 06:00:13;;;;;;;;;;;;;;;;;;4988374;28;20266;-65
2022/08/21 06:02:38;;;;;;;;;;;;;;;;;;4982661;28;19915;-65
2022/08/21 06:05:03;;;;;;;;;;;;;;;;;;4989749;28;20139;-65
2022/08/21 06:07:28;;;;;;;;;;;;;;;;;;4989248;28;19940;-64
2022/08/21 06:09:53;;;;;;;;;;;;;;;;;;4995775;28;19936;-64
2022/08/21 06:12:19;;;;;;;;;;;;;;;;;;4989043;28;20004;-64
2022/08/21 06:14:44;;;;;;;;;;;;;;;;;;4988064;28;19913;-64
2022/08/21 06:17:09;;;;;;;;;;;;;;;;;;4992352;28;19973;-64
2022/08/21 06:19:34;;;;;;;;;;;;;;;;;;4991366;28;19925;-66
2022/08/21 06:21:59;;;;;;;;;;;;;;;;;;4988611;28;19984;-66
2022/08/21 06:24:24;;;;;;;;;;;;;;;;;;4995534;28;19917;-65
2022/08/21 06:26:49;;;;;;;;;;;;;;;;;;5005387;28;20352;-65
2022/08/21 06:29:19;;;;;;;;;;;;;;;;;;4991444;28;19917;-65
2022/08/21 06:31:44;;;;;;;;;;;;;;;;;;4995463;28;19925;-65
2022/08/21 06:34:09;;;;;;;;;;;;;;;;;;4983003;28;19965;-65
2022/08/21 06:36:35;;;;;;;;;;;;;;;;;;4997512;28;19914;-65
2022/08/21 06:39:00;;;;;;;;;;;;;;;;;;4991097;28;19963;-65
2022/08/21 06:41:25;;;;;;;;;;;;;;;;;;4988177;28;20009;-66
2022/08/21 06:43:50;;;;;;;;;;;;;;;;;;4984493;28;19922;-66
2022/08/21 06:46:15;;;;;;;;;;;;;;;;;;4980389;28;19922;-65
2022/08/21 06:48:40;;;;;;;;;;;;;;;;;;4981316;28;19921;-66
2022/08/21 06:51:06;;;;;;;;;;;;;;;;;;4992447;28;19920;-65
2022/08/21 06:53:31;;;;;;;;;;;;;;;;;;4987935;28;19922;-65
2022/08/21 06:55:56;;;;;;;;;;;;;;;;;;5002427;28;20004;-65
2022/08/21 06:58:21;;;;;;;;;;;;;;;;;;5003620;28;19913;-65
2022/08/21 07:00:46;;;;;;;;;;;;;;;;;;4989285;28;20405;-65
2022/08/21 07:03:11;;;;;;;;;;;;;;;;;;4981222;28;20368;-65
2022/08/21 07:05:37;;;;;;;;;;;;;;;;;;4982610;28;20390;-66
2022/08/21 07:08:02;;;;;;;;;;;;;;;;;;4982014;28;19925;-66
2022/08/21 07:10:27;;;;;;;;;;;;;;;;;;4998082;28;20419;-66
2022/08/21 07:12:53;;;;;;;;;;;;;;;;;;4990938;28;19913;-66
2022/08/21 07:15:18;;;;;;;;;;;;;;;;;;4990493;28;19910;-66
2022/08/21 07:17:44;;;;;;;;;;;;;;;;;;5002701;28;20020;-66
2022/08/21 07:20:09;;;;;;;;;;;;;;;;;;5001073;28;19913;-65
2022/08/21 07:22:34;;;;;;;;;;;;;;;;;;4993657;28;19914;-65
2022/08/21 07:24:59;;;;;;;;;;;;;;;;;;4999040;28;19922;-66
2022/08/21 07:27:24;;;;;;;;;;;;;;;;;;4997022;28;19949;-66
2022/08/21 07:29:49;;;;;;;;;;;;;;;;;;4990844;28;19914;-66
2022/08/21 07:32:14;;;;;;;;;;;;;;;;;;5007514;28;19917;-66
2022/08/21 07:34:40;;;;;;;;;;;;;;;;;;4992048;28;19921;-67
2022/08/21 07:37:05;;;;;;;;;;;;;;;;;;4982486;28;19918;-67
2022/08/21 07:39:30;;;;;;;;;;;;;;;;;;4984548;28;19914;-66
2022/08/21 07:41:55;;;;;;;;;;;;;;;;;;4985920;28;19976;-67
2022/08/21 07:44:20;;;;;;;;;;;;;;;;;;4992612;28;19917;-66
2022/08/21 07:46:45;;;;;;;;;;;;;;;;;;4986673;28;19918;-65
2022/08/21 07:49:11;;;;;;;;;;;;;;;;;;4983492;28;20064;-66
2022/08/21 07:51:36;;;;;;;;;;;;;;;;;;4984555;28;19968;-68
2022/08/21 07:54:01;;;;;;;;;;;;;;;;;;5001013;28;19960;-59
2022/08/21 07:56:26;;;;;;;;;;;;;;;;;;4983093;28;19961;-69
2022/08/21 07:58:51;;;;;;;;;;;;;;;;;;4982691;28;20042;-65
2022/08/21 08:01:16;;;;;;;;;;;;;;;;;;4992692;28;20285;-65
2022/08/21 08:03:41;;;;;;;;;;;;;;;;;;4984867;28;19922;-65
2022/08/21 08:06:11;;;;;;;;;;;;;;;;;;4988821;28;21316;-64
2022/08/21 08:08:36;;;;;;;;;;;;;;;;;;4984211;28;19921;-63
2022/08/21 08:11:01;;;;;;;;;;;;;;;;;;4985464;28;19918;-65
2022/08/21 08:13:26;;;;;;;;;;;;;;;;;;4989303;28;20293;-65
2022/08/21 08:15:51;;;;;;;;;;;;;;;;;;4985203;28;19921;-64
2022/08/21 08:18:16;;;;;;;;;;;;;;;;;;5000529;28;20386;-65
2022/08/21 08:20:42;;;;;;;;;;;;;;;;;;5004721;28;19913;-64
2022/08/21 08:23:07;;;;;;;;;;;;;;;;;;5009057;28;19922;-64
2022/08/21 08:25:32;;;;;;;;;;;;;;;;;;5006572;28;19913;-65
2022/08/21 08:27:57;;;;;;;;;;;;;;;;;;5008816;28;20054;-65
2022/08/21 08:30:23;;;;;;;;;;;;;;;;;;5007443;28;20322;-65
2022/08/21 08:32:49;;;;;;;;;;;;;;;;;;4988485;28;19956;-65
2022/08/21 08:35:14;;;;;;;;;;;;;;;;;;5002733;28;20007;-64
2022/08/21 08:37:44;;;;;;;;;;;;;;;;;;5004106;28;19922;-64
2022/08/21 08:40:09;;;;;;;;;;;;;;;;;;5007063;28;19917;-65
2022/08/21 08:42:34;;;;;;;;;;;;;;;;;;5010152;28;20012;-65
2022/08/21 08:44:59;;;;;;;;;;;;;;;;;;5004643;28;19983;-63
2022/08/21 08:47:25;;;;;;;;;;;;;;;;;;5005056;28;20221;-64
2022/08/21 08:49:50;;;;;;;;;;;;;;;;;;5004173;28;20015;-64
2022/08/21 08:52:15;;;;;;;;;;;;;;;;;;5006163;28;19936;-68
2022/08/21 08:54:40;;;;;;;;;;;;;;;;;;5002906;28;19961;-72
2022/08/21 08:57:05;;;;;;;;;;;;;;;;;;5006683;28;19913;-65
2022/08/21 08:59:30;;;;;;;;;;;;;;;;;;5004334;28;19924;-64
2022/08/21 09:01:56;;;;;;;;;;;;;;;;;;5006253;28;20007;-65
2022/08/21 09:04:21;;;;;;;;;;;;;;;;;;5001827;28;19929;-65
2022/08/21 09:06:47;;;;;;;;;;;;;;;;;;4992187;28;19921;-64
2022/08/21 09:09:12;;;;;;;;;;;;;;;;;;5002651;28;19985;-65
2022/08/21 09:11:40;;;;;;;;;;;;;;;;;;5003133;28;19920;-65
2022/08/21 09:14:05;;;;;;;;;;;;;;;;;;5004892;28;19999;-65
2022/08/21 09:16:30;;;;;;;;;;;;;;;;;;5007223;28;20049;-65
2022/08/21 09:18:55;;;;;;;;;;;;;;;;;;5008784;28;19930;-65
2022/08/21 09:21:20;;;;;;;;;;;;;;;;;;5006001;28;19928;-65
2022/08/21 09:23:46;;;;;;;;;;;;;;;;;;5010370;28;20051;-65
2022/08/21 09:26:11;;;;;;;;;;;;;;;;;;4984675;28;19925;-65
2022/08/21 09:28:36;;;;;;;;;;;;;;;;;;5008170;28;20308;-65
2022/08/21 09:31:02;;;;;;;;;;;;;;;;;;5009976;28;19959;-65
2022/08/21 09:33:27;;;;;;;;;;;;;;;;;;5010798;28;19917;-64
2022/08/21 09:35:52;;;;;;;;;;;;;;;;;;5004243;28;20309;-64
2022/08/21 09:38:18;;;;;;;;;;;;;;;;;;4991809;28;19922;-65
2022/08/21 09:40:43;;;;;;;;;;;;;;;;;;5002083;28;19928;-64
2022/08/21 09:43:08;;;;;;;;;;;;;;;;;;5003484;28;19918;-64
2022/08/21 09:45:33;;;;;;;;;;;;;;;;;;5001525;28;19931;-64
2022/08/21 09:47:58;;;;;;;;;;;;;;;;;;5001317;28;20397;-65
2022/08/21 09:50:23;;;;;;;;;;;;;;;;;;5002750;28;19972;-65
2022/08/21 09:52:49;;;;;;;;;;;;;;;;;;5002040;28;19917;-65
2022/08/21 09:57:37;;;;;;;;;;;;;;;;;;5001858;28;19920;-65
2022/08/21 09:57:59;;;;;;;;;;;;;;;;;;5002488;28;20377;-65
2022/08/21 10:00:24;;;;;;;;;;;;;;;;;;5005862;28;19920;-65
2022/08/21 10:02:49;;;;;;;;;;;;;;;;;;4990734;28;19917;-65
2022/08/21 10:05:14;;;;;;;;;;;;;;;;;;5006754;28;19921;-64
2022/08/21 10:07:39;;;;;;;;;;;;;;;;;;5002713;28;19932;-64
2022/08/21 10:10:05;;;;;;;;;;;;;;;;;;5004772;28;20004;-65
2022/08/21 10:12:30;;;;;;;;;;;;;;;;;;5009145;28;20508;-65
2022/08/21 10:14:55;;;;;;;;;;;;;;;;;;5008272;28;19919;-65
2022/08/21 10:17:20;;;;;;;;;;;;;;;;;;5008431;28;20035;-57
2022/08/21 10:19:45;;;;;;;;;;;;;;;;;;4996920;28;20333;-66
2022/08/21 10:22:10;;;;;;;;;;;;;;;;;;5002527;28;20341;-66
2022/08/21 10:24:35;;;;;;;;;;;;;;;;;;4995748;28;20266;-65
2022/08/21 10:27:01;;;;;;;;;;;;;;;;;;5009969;28;20352;-65
2022/08/21 10:29:27;;;;;;;;;;;;;;;;;;4990161;28;19921;-65
2022/08/21 10:31:52;;;;;;;;;;;;;;;;;;4998608;28;19922;-67
2022/08/21 10:34:17;;;;;;;;;;;;;;;;;;4998357;28;19910;-66
2022/08/21 10:36:42;;;;;;;;;;;;;;;;;;5000100;28;19921;-66
2022/08/21 10:39:08;;;;;;;;;;;;;;;;;;5005381;28;19937;-66
2022/08/21 10:41:33;;;;;;;;;;;;;;;;;;4996225;28;19935;-66
2022/08/21 10:43:58;;;;;;;;;;;;;;;;;;4998858;28;19936;-65
2022/08/21 10:46:23;;;;;;;;;;;;;;;;;;4987972;28;19914;-65
2022/08/21 10:48:48;;;;;;;;;;;;;;;;;;5002259;28;20008;-66
2022/08/21 10:51:13;;;;;;;;;;;;;;;;;;5008561;28;20289;-66
2022/08/21 10:53:38;;;;;;;;;;;;;;;;;;4987278;28;20345;-66
2022/08/21 10:56:04;;;;;;;;;;;;;;;;;;4995708;28;20374;-65
2022/08/21 10:58:29;;;;;;;;;;;;;;;;;;4990645;28;20396;-65
2022/08/21 11:00:54;;;;;;;;;;;;;;;;;;4992461;28;19913;-66
2022/08/21 11:03:19;;;;;;;;;;;;;;;;;;4994743;28;19926;-67
2022/08/21 11:05:44;;;;;;;;;;;;;;;;;;4996352;28;19917;-67
2022/08/21 11:08:10;;;;;;;;;;;;;;;;;;4981178;28;19921;-66
2022/08/21 11:10:35;;;;;;;;;;;;;;;;;;4995200;28;20392;-66
2022/08/21 11:13:00;;;;;;;;;;;;;;;;;;4986424;28;20333;-66
2022/08/21 11:15:25;;;;;;;;;;;;;;;;;;4998380;28;19921;-65
2022/08/21 11:17:50;;;;;;;;;;;;;;;;;;4986976;28;19984;-67
2022/08/21 11:20:15;;;;;;;;;;;;;;;;;;4996397;28;19913;-66
2022/08/21 11:22:40;;;;;;;;;;;;;;;;;;4993035;28;20044;-65
2022/08/21 11:25:07;;;;;;;;;;;;;;;;;;4989827;28;19922;-66
2022/08/21 11:27:32;;;;;;;;;;;;;;;;;;4996534;28;20439;-67
2022/08/21 11:29:57;;;;;;;;;;;;;;;;;;4999221;28;19914;-66
2022/08/21 11:32:22;;;;;;;;;;;;;;;;;;4999461;28;19925;-65
2022/08/21 11:34:47;;;;;;;;;;;;;;;;;;5003433;28;19914;-67
2022/08/21 11:37:12;;;;;;;;;;;;;;;;;;5001101;28;20274;-65
2022/08/21 11:39:37;;;;;;;;;;;;;;;;;;4995746;28;19921;-65
2022/08/21 11:42:02;;;;;;;;;;;;;;;;;;4996860;28;19914;-66
2022/08/21 11:44:28;;;;;;;;;;;;;;;;;;4996617;28;20025;-66
2022/08/21 11:46:53;;;;;;;;;;;;;;;;;;5010191;28;19914;-65
2022/08/21 11:49:18;;;;;;;;;;;;;;;;;;5006013;28;19917;-66
2022/08/21 11:51:43;;;;;;;;;;;;;;;;;;5004233;28;19914;-67
2022/08/21 11:54:08;;;;;;;;;;;;;;;;;;4996571;28;19968;-67
2022/08/21 11:56:33;;;;;;;;;;;;;;;;;;5001809;28;19913;-67
2022/08/21 11:58:58;;;;;;;;;;;;;;;;;;5001859;28;19917;-66
2022/08/21 12:01:24;;;;;;;;;;;;;;;;;;5012036;28;20230;-66
2022/08/21 12:03:49;;;;;;;;;;;;;;;;;;5000843;28;19992;-65
2022/08/21 12:06:14;;;;;;;;;;;;;;;;;;5000950;28;19914;-66
2022/08/21 12:08:40;;;;;;;;;;;;;;;;;;5006007;28;19918;-67
2022/08/21 12:11:05;;;;;;;;;;;;;;;;;;5008004;28;19953;-66
2022/08/21 12:13:30;;;;;;;;;;;;;;;;;;5011571;28;20350;-66
2022/08/21 12:15:55;;;;;;;;;;;;;;;;;;5010479;28;20013;-67
2022/08/21 12:18:20;;;;;;;;;;;;;;;;;;5011321;28;19937;-67
2022/08/21 12:20:45;;;;;;;;;;;;;;;;;;5013546;28;19961;-67
2022/08/21 12:23:11;;;;;;;;;;;;;;;;;;5013082;28;19921;-67
2022/08/21 12:25:36;;;;;;;;;;;;;;;;;;5004387;28;20285;-67
2022/08/21 12:28:01;;;;;;;;;;;;;;;;;;5009458;28;20016;-65
2022/08/21 12:30:26;;;;;;;;;;;;;;;;;;4992028;28;19914;-67
2022/08/21 12:32:51;;;;;;;;;;;;;;;;;;4998825;28;20282;-65
2022/08/21 12:35:16;;;;;;;;;;;;;;;;;;5012191;28;20350;-67
2022/08/21 12:37:41;;;;;;;;;;;;;;;;;;4988995;28;20283;-67
2022/08/21 12:40:07;;;;;;;;;;;;;;;;;;5004302;28;19917;-67
2022/08/21 12:42:32;;;;;;;;;;;;;;;;;;5004841;28;19921;-68
2022/08/21 12:44:58;;;;;;;;;;;;;;;;;;5000071;28;19918;-67
2022/08/21 12:47:23;;;;;;;;;;;;;;;;;;4996647;28;19941;-67
2022/08/21 12:49:48;;;;;;;;;;;;;;;;;;5006932;28;19913;-67
2022/08/21 12:52:13;;;;;;;;;;;;;;;;;;5005679;28;19925;-66
2022/08/21 12:54:38;;;;;;;;;;;;;;;;;;4998245;28;19917;-67
2022/08/21 12:57:03;;;;;;;;;;;;;;;;;;5009739;28;19956;-67
2022/08/21 12:59:29;;;;;;;;;;;;;;;;;;5007091;28;19967;-66
2022/08/21 13:01:54;;;;;;;;;;;;;;;;;;5011186;28;19920;-67
2022/08/21 13:04:22;;;;;;;;;;;;;;;;;;5002629;28;19918;-66
2022/08/21 13:06:47;;;;;;;;;;;;;;;;;;4985205;28;20471;-67
2022/08/21 13:09:13;;;;;;;;;;;;;;;;;;5002072;28;19921;-67
2022/08/21 13:11:38;;;;;;;;;;;;;;;;;;4995574;28;19971;-66
2022/08/21 13:14:03;;;;;;;;;;;;;;;;;;5008818;28;20434;-66
2022/08/21 13:16:28;;;;;;;;;;;;;;;;;;5009573;28;19921;-66
2022/08/21 13:18:53;;;;;;;;;;;;;;;;;;4996005;28;19922;-65
2022/08/21 13:21:18;;;;;;;;;;;;;;;;;;5002495;28;20012;-63
2022/08/21 13:23:43;;;;;;;;;;;;;;;;;;4984876;28;19917;-66
2022/08/21 13:26:08;;;;;;;;;;;;;;;;;;4996095;28;19936;-66
2022/08/21 13:28:34;;;;;;;;;;;;;;;;;;4994331;28;19918;-67
2022/08/21 13:31:01;;;;;;;;;;;;;;;;;;4997063;28;19922;-66
2022/08/21 13:33:26;;;;;;;;;;;;;;;;;;5011627;28;20008;-66
2022/08/21 13:35:51;;;;;;;;;;;;;;;;;;5003910;28;20000;-66
2022/08/21 13:38:16;;;;;;;;;;;;;;;;;;5002252;28;19928;-68
2022/08/21 13:40:42;;;;;;;;;;;;;;;;;;4998813;28;20005;-67
2022/08/21 13:43:07;;;;;;;;;;;;;;;;;;4979873;28;19918;-66
2022/08/21 13:45:32;;;;;;;;;;;;;;;;;;4984467;28;19918;-67
2022/08/21 13:47:57;;;;;;;;;;;;;;;;;;5004136;28;19917;-67
2022/08/21 13:50:22;;;;;;;;;;;;;;;;;;5009080;28;19968;-66
2022/08/21 13:52:48;;;;;;;;;;;;;;;;;;5003799;28;19953;-66
2022/08/21 13:55:13;;;;;;;;;;;;;;;;;;5006365;28;19921;-66
2022/08/21 13:57:38;;;;;;;;;;;;;;;;;;4997740;28;20057;-66
2022/08/21 14:00:03;;;;;;;;;;;;;;;;;;4994760;28;20000;-67
2022/08/21 14:02:28;;;;;;;;;;;;;;;;;;4994170;28;19921;-67
2022/08/21 14:04:54;;;;;;;;;;;;;;;;;;5007875;28;19975;-66
2022/08/21 14:07:19;;;;;;;;;;;;;;;;;;4997521;28;19961;-64
2022/08/21 14:09:44;;;;;;;;;;;;;;;;;;5010421;28;20007;-67
2022/08/21 14:12:09;;;;;;;;;;;;;;;;;;5004784;28;19921;-65
2022/08/21 14:14:35;;;;;;;;;;;;;;;;;;4996968;28;19914;-67
2022/08/21 14:17:00;;;;;;;;;;;;;;;;;;5014790;28;19963;-67
2022/08/21 14:19:25;;;;;;;;;;;;;;;;;;4991011;28;20285;-67
2022/08/21 14:21:50;;;;;;;;;;;;;;;;;;5004608;28;20358;-65
2022/08/21 14:24:16;;;;;;;;;;;;;;;;;;4994798;28;19937;-67
2022/08/21 14:26:41;;;;;;;;;;;;;;;;;;4999749;28;19921;-65
2022/08/21 14:29:06;;;;;;;;;;;;;;;;;;4991155;28;19941;-67
2022/08/21 14:31:32;;;;;;;;;;;;;;;;;;4992640;28;20361;-66
2022/08/21 14:33:58;;;;;;;;;;;;;;;;;;5000181;28;19933;-67
2022/08/21 14:36:24;;;;;;;;;;;;;;;;;;5003675;28;19918;-65
2022/08/21 14:38:49;;;;;;;;;;;;;;;;;;4970130;28;20055;-65
2022/08/21 14:41:15;;;;;;;;;;;;;;;;;;5004466;28;19913;-66
2022/08/21 14:43:40;;;;;;;;;;;;;;;;;;4995178;28;19914;-66
2022/08/21 14:46:06;;;;;;;;;;;;;;;;;;4987550;28;19914;-66
2022/08/21 14:48:31;;;;;;;;;;;;;;;;;;5010588;28;20269;-67
2022/08/21 14:50:56;;;;;;;;;;;;;;;;;;4998350;28;20405;-66
2022/08/21 14:53:21;;;;;;;;;;;;;;;;;;4996539;28;19925;-65
2022/08/21 14:56:04;;;;;;;;;;;;;;;;;;5013097;28;19920;-66
2022/08/21 14:58:29;;;;;;;;;;;;;;;;;;4993306;28;19933;-67
2022/08/21 15:00:55;;;;;;;;;;;;;;;;;;5008753;28;19917;-66
2022/08/21 15:03:21;;;;;;;;;;;;;;;;;;5011061;28;20008;-66
2022/08/21 15:05:46;;;;;;;;;;;;;;;;;;5010015;28;19961;-68
2022/08/21 15:13:30;;;;;;;;;;;;;;;;;;4891214;28;19932;-82
2022/08/21 15:15:55;;;;;;;;;;;;;;;;;;4987126;28;20291;-82
2022/08/21 15:18:21;;;;;;;;;;;;;;;;;;4991220;28;20021;-82
2022/08/21 15:20:46;;;;;;;;;;;;;;;;;;4990059;28;20287;-82
2022/08/21 15:23:11;;;;;;;;;;;;;;;;;;4990667;28;19922;-82
2022/08/21 15:25:36;;;;;;;;;;;;;;;;;;4988833;28;20283;-82
2022/08/21 15:28:01;;;;;;;;;;;;;;;;;;4991333;28;19964;-82
2022/08/21 15:30:27;;;;;;;;;;;;;;;;;;4989971;28;20364;-82
2022/08/21 15:32:52;;;;;;;;;;;;;;;;;;4993934;28;20426;-82
2022/08/21 15:35:17;;;;;;;;;;;;;;;;;;4993008;28;19965;-81
2022/08/21 15:37:42;;;;;;;;;;;;;;;;;;4995177;28;20267;-82
2022/08/21 15:40:07;;;;;;;;;;;;;;;;;;4993508;28;19921;-82
2022/08/21 15:42:32;;;;;;;;;;;;;;;;;;4994893;28;19964;-82
2022/08/21 15:44:58;;;;;;;;;;;;;;;;;;4988456;28;20008;-82
2022/08/21 15:47:23;;;;;;;;;;;;;;;;;;4994888;28;19925;-83
2022/08/21 15:49:48;;;;;;;;;;;;;;;;;;4992215;28;20397;-82
2022/08/21 15:52:13;;;;;;;;;;;;;;;;;;4994626;28;19996;-82
2022/08/21 15:54:39;;;;;;;;;;;;;;;;;;4990404;28;20414;-82
2022/08/21 15:57:04;;;;;;;;;;;;;;;;;;4992860;28;20363;-82
2022/08/21 15:59:29;;;;;;;;;;;;;;;;;;4992732;28;19938;-81
2022/08/21 16:01:54;;;;;;;;;;;;;;;;;;4994798;28;19914;-81
2022/08/21 16:04:19;;;;;;;;;;;;;;;;;;4992937;28;19910;-81
2022/08/21 16:06:45;;;;;;;;;;;;;;;;;;4992481;28;20422;-81
2022/08/21 16:09:10;;;;;;;;;;;;;;;;;;4994933;28;19914;-82
2022/08/21 16:11:35;;;;;;;;;;;;;;;;;;4993118;28;19914;-81
2022/08/21 16:14:00;;;;;;;;;;;;;;;;;;4990682;28;20359;-82
2022/08/21 16:16:25;;;;;;;;;;;;;;;;;;4994167;28;19921;-82
2022/08/21 16:18:50;;;;;;;;;;;;;;;;;;4992928;28;19910;-81
2022/08/21 16:21:16;;;;;;;;;;;;;;;;;;4994283;28;19914;-82
2022/08/21 16:23:41;;;;;;;;;;;;;;;;;;4978625;28;19916;-82
2022/08/21 16:26:06;;;;;;;;;;;;;;;;;;4993152;28;19913;-82
2022/08/21 16:28:31;;;;;;;;;;;;;;;;;;4991795;28;19914;-82
2022/08/21 16:30:56;;;;;;;;;;;;;;;;;;4993820;28;19913;-82
2022/08/21 16:33:21;;;;;;;;;;;;;;;;;;4992838;28;19987;-82
2022/08/21 16:35:47;;;;;;;;;;;;;;;;;;4986103;28;20368;-82
2022/08/21 16:38:12;;;;;;;;;;;;;;;;;;4987614;28;20365;-81